createdAt,value
2018-04-20T00:01:54.839Z,102050.33
2018-04-20T00:04:22.332Z,102051.98
2018-04-20T00:06:49.916Z,102049.50
2018-04-20T00:09:17.450Z,102042.09
2018-04-20T00:11:44.948Z,102043.81
2018-04-20T00:14:12.468Z,102040.19
2018-04-20T00:16:39.970Z,102036.37
2018-04-20T00:19:07.500Z,102040.60
2018-04-20T00:21:34.995Z,102035.06
2018-04-20T00:24:02.485Z,102035.95
2018-04-20T00:26:30.034Z,102032.61
2018-04-20T00:28:57.520Z,102026.77
2018-04-20T00:31:25.072Z,102026.16
2018-04-20T00:33:52.589Z,102026.22
2018-04-20T00:36:20.077Z,102022.22
2018-04-20T00:38:47.636Z,102014.95
2018-04-20T00:41:15.158Z,102015.31
2018-04-20T00:43:42.644Z,102013.75
2018-04-20T00:46:10.135Z,102014.92
2018-04-20T00:48:37.817Z,102004.94
2018-04-20T00:51:05.402Z,101999.41
2018-04-20T00:53:44.780Z,102000.42
2018-04-20T00:56:12.270Z,101999.63
2018-04-20T00:58:39.761Z,101996.70
2018-04-20T01:01:07.276Z,102001.53
2018-04-20T01:03:34.763Z,101992.59
2018-04-20T01:06:02.248Z,101989.44
2018-04-20T01:08:29.873Z,101993.06
2018-04-20T01:10:57.352Z,101992.30
2018-04-20T01:13:24.819Z,101990.67
2018-04-20T01:15:52.343Z,101993.88
2018-04-20T01:18:19.833Z,101996.13
2018-04-20T01:20:47.461Z,101994.62
2018-04-20T01:23:15.021Z,101992.39
2018-04-20T01:25:42.562Z,101991.17
2018-04-20T01:28:10.158Z,101982.48
2018-04-20T01:30:37.653Z,101981.88
2018-04-20T01:33:05.174Z,101983.50
2018-04-20T01:35:32.649Z,101985.30
2018-04-20T01:38:00.113Z,101978.13
2018-04-20T01:40:27.614Z,101982.06
2018-04-20T01:42:55.497Z,101984.41
2018-04-20T01:45:22.993Z,101982.02
2018-04-20T01:47:50.494Z,101974.98
2018-04-20T01:50:18.021Z,101973.75
2018-04-20T01:52:45.495Z,101973.27
2018-04-20T01:55:13.081Z,101962.88
2018-04-20T01:57:40.580Z,101963.45
2018-04-20T02:00:08.064Z,101968.63
2018-04-20T02:02:35.545Z,101966.23
2018-04-20T02:05:03.045Z,101968.48
2018-04-20T02:07:30.538Z,101964.00
2018-04-20T02:09:58.035Z,101960.08
2018-04-20T02:12:25.567Z,101958.23
2018-04-20T02:14:53.015Z,101955.52
2018-04-20T02:17:20.490Z,101959.00
2018-04-20T02:19:47.978Z,101959.47
2018-04-20T02:22:15.497Z,101963.20
2018-04-20T02:24:42.967Z,101958.64
2018-04-20T02:27:10.451Z,101953.44
2018-04-20T02:29:37.921Z,101956.80
2018-04-20T02:32:05.392Z,101959.03
2018-04-20T02:34:32.914Z,101949.81
2018-04-20T02:37:00.537Z,101952.69
2018-04-20T02:39:28.004Z,101951.44
2018-04-20T02:41:55.491Z,101944.47
2018-04-20T02:44:22.995Z,101945.31
2018-04-20T02:46:50.456Z,101941.55
2018-04-20T02:49:18.077Z,101945.08
2018-04-20T02:51:45.537Z,101947.02
2018-04-20T02:54:13.108Z,101948.22
2018-04-20T02:56:40.613Z,101939.48
2018-04-20T02:59:08.220Z,101935.89
2018-04-20T03:01:35.805Z,101939.83
2018-04-20T03:04:03.339Z,101936.56
2018-04-20T03:06:30.834Z,101944.13
2018-04-20T03:08:58.352Z,101941.45
2018-04-20T03:11:25.836Z,101942.94
2018-04-20T03:13:53.372Z,101942.33
2018-04-20T03:16:20.905Z,101937.54
2018-04-20T03:18:48.406Z,101943.50
2018-04-20T03:21:15.855Z,101939.04
2018-04-20T03:23:43.403Z,101939.70
2018-04-20T03:26:10.893Z,101943.45
2018-04-20T03:28:38.388Z,101943.33
2018-04-20T03:31:05.908Z,101942.29
2018-04-20T03:33:33.413Z,101942.50
2018-04-20T03:36:00.880Z,101933.05
2018-04-20T03:38:28.400Z,101934.75
2018-04-20T03:40:56.875Z,101938.66
2018-04-20T03:43:24.340Z,101941.52
2018-04-20T03:45:51.832Z,101947.13
2018-04-20T03:48:19.297Z,101945.56
2018-04-20T03:50:46.791Z,101945.52
2018-04-20T03:53:14.255Z,101938.41
2018-04-20T03:55:41.708Z,101941.31
2018-04-20T03:58:09.182Z,101935.23
2018-04-20T04:00:36.839Z,101943.70
2018-04-20T04:03:04.351Z,101937.64
2018-04-20T04:05:31.883Z,101938.70
2018-04-20T04:07:59.368Z,101940.27
2018-04-20T04:10:26.868Z,101940.89
2018-04-20T04:12:54.326Z,101941.48
2018-04-20T04:15:21.811Z,101940.45
2018-04-20T04:18:01.148Z,101943.30
2018-04-20T04:20:35.483Z,101938.05
2018-04-20T04:23:14.797Z,101937.18
2018-04-20T04:25:54.344Z,101941.34
2018-04-20T04:28:25.532Z,101935.11
2018-04-20T04:30:52.995Z,101938.12
2018-04-20T04:33:20.476Z,101941.95
2018-04-20T04:35:47.943Z,101941.78
2018-04-20T04:38:15.436Z,101939.31
2018-04-20T04:40:42.932Z,101940.55
2018-04-20T04:43:10.416Z,101937.52
2018-04-20T04:45:37.953Z,101944.17
2018-04-20T04:48:05.476Z,101942.53
2018-04-20T04:50:32.882Z,101942.13
2018-04-20T04:53:00.398Z,101950.70
2018-04-20T04:55:27.874Z,101944.06
2018-04-20T04:57:55.357Z,101947.02
2018-04-20T05:00:22.873Z,101945.08
2018-04-20T05:02:50.403Z,101944.55
2018-04-20T05:05:17.860Z,101939.00
2018-04-20T05:07:45.374Z,101943.72
2018-04-20T05:10:12.900Z,101943.50
2018-04-20T05:12:40.357Z,101943.45
2018-04-20T05:15:07.921Z,101944.19
2018-04-20T05:17:35.419Z,101935.39
2018-04-20T05:20:02.930Z,101940.09
2018-04-20T05:22:30.396Z,101948.95
2018-04-20T05:24:57.853Z,101941.74
2018-04-20T05:27:25.327Z,101932.19
2018-04-20T05:29:52.804Z,101934.13
2018-04-20T05:32:20.296Z,101936.36
2018-04-20T05:34:47.879Z,101931.92
2018-04-20T05:37:15.367Z,101925.75
2018-04-20T05:39:42.826Z,101924.30
2018-04-20T05:42:10.361Z,101921.35
2018-04-20T05:44:37.858Z,101920.92
2018-04-20T05:47:05.381Z,101919.09
2018-04-20T05:49:32.881Z,101917.35
2018-04-20T05:52:00.404Z,101908.81
2018-04-20T05:54:27.874Z,101919.77
2018-04-20T05:56:55.410Z,101908.58
2018-04-20T05:59:22.880Z,101910.11
2018-04-20T06:01:51.043Z,101910.92
2018-04-20T06:04:18.540Z,101910.30
2018-04-20T06:06:46.071Z,101909.16
2018-04-20T06:09:13.618Z,101900.73
2018-04-20T06:11:41.111Z,101909.03
2018-04-20T06:14:08.633Z,101908.27
2018-04-20T06:16:36.197Z,101904.74
2018-04-20T06:19:03.717Z,101911.95
2018-04-20T06:21:31.200Z,101905.86
2018-04-20T06:23:58.669Z,101904.87
2018-04-20T06:26:26.151Z,101902.24
2018-04-20T06:28:53.632Z,101908.34
2018-04-20T06:31:21.100Z,101897.00
2018-04-20T06:33:48.625Z,101898.51
2018-04-20T06:36:16.097Z,101894.17
2018-04-20T06:38:43.716Z,101896.55
2018-04-20T06:41:11.268Z,101891.06
2018-04-20T06:43:38.817Z,101893.73
2018-04-20T06:46:06.300Z,101893.38
2018-04-20T06:48:33.852Z,101889.25
2018-04-20T06:51:01.376Z,101885.33
2018-04-20T06:53:28.853Z,101881.58
2018-04-20T06:55:56.370Z,101883.10
2018-04-20T06:58:23.887Z,101883.17
2018-04-20T07:00:51.380Z,101881.86
2018-04-20T07:03:18.861Z,101875.30
2018-04-20T07:05:46.376Z,101883.27
2018-04-20T07:08:13.832Z,101879.55
2018-04-20T07:10:41.348Z,101878.51
2018-04-20T07:13:08.871Z,101877.05
2018-04-20T07:15:36.332Z,101877.63
2018-04-20T07:18:03.788Z,101870.45
2018-04-20T07:20:31.265Z,101875.55
2018-04-20T07:22:58.872Z,101871.48
2018-04-20T07:25:26.358Z,101868.95
2018-04-20T07:27:53.883Z,101872.09
2018-04-20T07:30:21.352Z,101862.52
2018-04-20T07:32:48.841Z,101861.26
2018-04-20T07:35:16.332Z,101864.21
2018-04-20T07:37:43.799Z,101866.78
2018-04-20T07:40:11.312Z,101865.22
2018-04-20T07:42:38.827Z,101865.03
2018-04-20T07:45:06.283Z,101859.06
2018-04-20T07:47:33.813Z,101862.42
2018-04-20T07:50:01.396Z,101857.09
2018-04-20T07:52:28.963Z,101856.82
2018-04-20T07:54:56.448Z,101856.03
2018-04-20T07:57:24.064Z,101849.86
2018-04-20T07:59:51.565Z,101851.43
2018-04-20T08:02:19.073Z,101847.02
2018-04-20T08:04:46.607Z,101854.89
2018-04-20T08:07:14.104Z,101839.70
2018-04-20T08:09:41.675Z,101840.27
2018-04-20T08:12:09.157Z,101835.69
2018-04-20T08:14:36.619Z,101836.52
2018-04-20T08:17:04.124Z,101832.08
2018-04-20T08:19:31.689Z,101835.24
2018-04-20T08:21:59.180Z,101832.27
2018-04-20T08:24:26.724Z,101836.79
2018-04-20T08:26:54.207Z,101835.76
2018-04-20T08:29:21.688Z,101836.16
2018-04-20T08:31:49.177Z,101833.98
2018-04-20T08:34:16.684Z,101832.70
2018-04-20T08:36:44.216Z,101825.73
2018-04-20T08:39:11.713Z,101820.27
2018-04-20T08:41:39.212Z,101819.80
2018-04-20T08:44:06.732Z,101816.27
2018-04-20T08:46:34.183Z,101819.05
2018-04-20T08:49:01.834Z,101807.88
2018-04-20T08:51:29.349Z,101811.77
2018-04-20T08:53:56.871Z,101812.63
2018-04-20T08:56:24.362Z,101805.77
2018-04-20T08:58:51.822Z,101800.25
2018-04-20T09:01:19.321Z,101800.17
2018-04-20T09:03:46.781Z,101801.02
2018-04-20T09:06:14.239Z,101797.81
2018-04-20T09:08:41.767Z,101796.23
2018-04-20T09:11:09.220Z,101798.64
2018-04-20T09:13:36.703Z,101792.91
2018-04-20T09:16:04.319Z,101793.28
2018-04-20T09:18:31.853Z,101789.16
2018-04-20T09:20:59.382Z,101792.70
2018-04-20T09:23:26.882Z,101786.37
2018-04-20T09:25:54.406Z,101784.95
2018-04-20T09:28:21.868Z,101775.84
2018-04-20T09:30:49.324Z,101782.02
2018-04-20T09:33:16.804Z,101780.44
2018-04-20T09:35:44.393Z,101776.61
2018-04-20T09:38:11.879Z,101773.64
2018-04-20T09:40:39.422Z,101767.95
2018-04-20T09:43:06.928Z,101765.95
2018-04-20T09:45:34.529Z,101763.09
2018-04-20T09:48:02.001Z,101766.89
2018-04-20T09:50:29.563Z,101764.84
2018-04-20T09:52:57.067Z,101756.78
2018-04-20T09:55:24.557Z,101760.02
2018-04-20T09:57:52.017Z,101761.61
2018-04-20T10:00:19.473Z,101748.55
2018-04-20T10:02:47.050Z,101748.58
2018-04-20T10:05:14.537Z,101752.26
2018-04-20T10:07:42.024Z,101744.44
2018-04-20T10:10:09.567Z,101744.20
2018-04-20T10:12:37.076Z,101736.27
2018-04-20T10:15:04.533Z,101733.22
2018-04-20T10:17:32.020Z,101732.36
2018-04-20T10:19:59.600Z,101730.45
2018-04-20T10:22:27.054Z,101731.47
2018-04-20T10:24:54.496Z,101737.16
2018-04-20T10:27:21.985Z,101726.09
2018-04-20T10:29:49.473Z,101730.66
2018-04-20T10:32:16.948Z,101722.33
2018-04-20T10:34:44.507Z,101721.46
2018-04-20T10:37:11.989Z,101725.50
2018-04-20T10:39:39.528Z,101716.37
2018-04-20T10:42:07.031Z,101713.86
2018-04-20T10:44:34.538Z,101707.84
2018-04-20T10:47:02.085Z,101700.05
2018-04-20T10:49:29.597Z,101705.95
2018-04-20T10:51:57.059Z,101703.16
2018-04-20T10:54:24.663Z,101697.67
2018-04-20T10:56:52.145Z,101697.31
2018-04-20T10:59:19.631Z,101689.66
2018-04-20T11:01:47.233Z,101685.59
2018-04-20T11:04:14.811Z,101689.98
2018-04-20T11:06:42.302Z,101676.27
2018-04-20T11:09:09.779Z,101681.31
2018-04-20T11:11:37.234Z,101679.73
2018-04-20T11:14:04.707Z,101681.51
2018-04-20T11:16:32.270Z,101677.78
2018-04-20T11:18:59.738Z,101680.56
2018-04-20T11:21:27.208Z,101679.95
2018-04-20T11:23:54.709Z,101676.39
2018-04-20T11:26:22.188Z,101674.69
2018-04-20T11:28:49.685Z,101666.54
2018-04-20T11:31:17.540Z,101670.38
2018-04-20T11:33:45.041Z,101661.83
2018-04-20T11:36:12.545Z,101659.59
2018-04-20T11:38:40.083Z,101662.54
2018-04-20T11:41:07.585Z,101653.87
2018-04-20T11:43:35.034Z,101650.05
2018-04-20T11:46:02.522Z,101651.23
2018-04-20T11:48:30.011Z,101648.20
2018-04-20T11:50:57.593Z,101644.53
2018-04-20T11:53:25.113Z,101641.22
2018-04-20T11:55:52.609Z,101637.70
2018-04-20T11:58:20.115Z,101642.69
2018-04-20T12:00:47.645Z,101638.53
2018-04-20T12:03:15.214Z,101637.37
2018-04-20T12:05:42.693Z,101627.42
2018-04-20T12:08:10.187Z,101623.84
2018-04-20T12:10:37.761Z,101624.42
2018-04-20T12:13:05.248Z,101622.62
2018-04-20T12:15:32.786Z,101616.12
2018-04-20T12:18:00.285Z,101613.14
2018-04-20T12:20:27.824Z,101606.02
2018-04-20T12:22:55.332Z,101603.94
2018-04-20T12:25:22.823Z,101602.66
2018-04-20T12:27:50.304Z,101589.83
2018-04-20T12:30:17.815Z,101593.41
2018-04-20T12:32:45.349Z,101590.80
2018-04-20T12:35:12.822Z,101588.67
2018-04-20T12:37:40.388Z,101585.15
2018-04-20T12:40:07.977Z,101586.86
2018-04-20T12:42:35.468Z,101576.37
2018-04-20T12:45:02.944Z,101575.72
2018-04-20T12:47:30.475Z,101567.83
2018-04-20T12:49:57.966Z,101568.33
2018-04-20T12:52:25.433Z,101568.58
2018-04-20T12:54:52.922Z,101562.26
2018-04-20T12:57:20.498Z,101565.78
2018-04-20T12:59:48.001Z,101560.79
2018-04-20T13:02:15.467Z,101550.45
2018-04-20T13:04:42.927Z,101544.86
2018-04-20T13:07:10.399Z,101547.48
2018-04-20T13:09:37.838Z,101548.06
2018-04-20T13:12:05.338Z,101547.56
2018-04-20T13:14:32.901Z,101540.42
2018-04-20T13:17:00.367Z,101537.22
2018-04-20T13:19:27.932Z,101523.77
2018-04-20T13:21:55.404Z,101524.58
2018-04-20T13:24:22.899Z,101518.09
2018-04-20T13:26:50.373Z,101518.19
2018-04-20T13:29:17.946Z,101513.10
2018-04-20T13:31:45.460Z,101504.73
2018-04-20T13:34:13.019Z,101499.25
2018-04-20T13:36:40.522Z,101496.41
2018-04-20T13:39:07.972Z,101499.36
2018-04-20T13:41:35.503Z,101488.17
2018-04-20T13:44:02.989Z,101482.20
2018-04-20T13:46:30.539Z,101483.36
2018-04-20T13:48:58.087Z,101482.95
2018-04-20T13:51:25.673Z,101479.41
2018-04-20T13:53:53.130Z,101473.65
2018-04-20T13:56:20.591Z,101472.02
2018-04-20T13:58:48.035Z,101461.00
2018-04-20T14:01:15.492Z,101460.50
2018-04-20T14:03:42.976Z,101462.93
2018-04-20T14:06:10.478Z,101454.06
2018-04-20T14:08:37.952Z,101459.83
2018-04-20T14:11:05.452Z,101452.22
2018-04-20T14:13:33.029Z,101449.52
2018-04-20T14:16:00.498Z,101442.67
2018-04-20T14:18:27.956Z,101430.70
2018-04-20T14:20:55.412Z,101440.87
2018-04-20T14:23:22.937Z,101434.44
2018-04-20T14:25:50.468Z,101434.45
2018-04-20T14:28:17.953Z,101425.56
2018-04-20T14:30:45.447Z,101420.59
2018-04-20T14:33:12.923Z,101420.58
2018-04-20T14:35:40.405Z,101423.67
2018-04-20T14:38:07.881Z,101416.58
2018-04-20T14:40:35.445Z,101409.21
2018-04-20T14:43:02.923Z,101405.70
2018-04-20T14:45:30.437Z,101416.26
2018-04-20T14:47:57.887Z,101405.98
2018-04-20T14:50:25.395Z,101401.28
2018-04-20T14:52:52.877Z,101401.66
2018-04-20T14:55:20.418Z,101396.70
2018-04-20T14:57:47.979Z,101401.66
2018-04-20T15:00:15.537Z,101395.16
2018-04-20T15:02:43.010Z,101392.27
2018-04-20T15:05:10.556Z,101387.06
2018-04-20T15:07:38.109Z,101383.59
2018-04-20T15:10:05.571Z,101384.67
2018-04-20T15:12:33.052Z,101376.59
2018-04-20T15:15:00.507Z,101381.78
2018-04-20T15:17:28.001Z,101378.52
2018-04-20T15:19:55.478Z,101373.84
2018-04-20T15:22:23.077Z,101364.78
2018-04-20T15:24:50.555Z,101370.48
2018-04-20T15:27:18.063Z,101364.48
2018-04-20T15:29:45.513Z,101361.36
2018-04-20T15:32:13.000Z,101348.47
2018-04-20T15:34:40.542Z,101350.02
2018-04-20T15:37:08.033Z,101353.84
2018-04-20T15:39:35.538Z,101344.38
2018-04-20T15:42:03.134Z,101339.58
2018-04-20T15:44:30.692Z,101338.30
2018-04-20T15:46:58.159Z,101335.75
2018-04-20T15:49:25.689Z,101328.70
2018-04-20T15:51:53.150Z,101331.59
2018-04-20T15:54:20.670Z,101329.68
2018-04-20T15:56:48.132Z,101331.67
2018-04-20T15:59:15.594Z,101322.95
2018-04-20T16:01:43.067Z,101320.27
2018-04-20T16:04:10.541Z,101311.20
2018-04-20T16:06:38.033Z,101314.28
2018-04-20T16:09:05.510Z,101312.69
2018-04-20T16:11:33.016Z,101308.64
2018-04-20T16:14:00.480Z,101304.52
2018-04-20T16:16:28.034Z,101297.13
2018-04-20T16:18:55.533Z,101294.16
2018-04-20T16:21:23.017Z,101288.63
2018-04-20T16:23:50.483Z,101287.39
2018-04-20T16:26:17.965Z,101283.36
2018-04-20T16:28:45.475Z,101277.69
2018-04-20T16:31:13.005Z,101273.25
2018-04-20T16:33:40.524Z,101274.05
2018-04-20T16:36:08.085Z,101272.47
2018-04-20T16:38:35.592Z,101268.76
2018-04-20T16:41:03.080Z,101272.09
2018-04-20T16:43:30.537Z,101269.04
2018-04-20T16:45:58.091Z,101258.95
2018-04-20T16:48:25.607Z,101258.36
2018-04-20T16:50:53.119Z,101260.39
2018-04-20T16:53:20.616Z,101256.33
2018-04-20T16:55:48.074Z,101249.11
2018-04-20T16:58:15.534Z,101245.59
2018-04-20T17:00:43.028Z,101242.13
2018-04-20T17:03:10.533Z,101242.00
2018-04-20T17:05:37.989Z,101236.35
2018-04-20T17:08:05.492Z,101231.63
2018-04-20T17:10:32.968Z,101230.86
2018-04-20T17:13:00.839Z,101222.59
2018-04-20T17:15:28.367Z,101229.22
2018-04-20T17:17:55.888Z,101221.58
2018-04-20T17:20:23.368Z,101222.61
2018-04-20T17:22:50.919Z,101219.33
2018-04-20T17:25:18.408Z,101215.45
2018-04-20T17:27:45.943Z,101220.23
2018-04-20T17:30:13.721Z,101214.81
2018-04-20T17:32:41.230Z,101218.20
2018-04-20T17:35:08.762Z,101217.59
2018-04-20T17:37:36.249Z,101216.31
2018-04-20T17:40:03.726Z,101214.25
2018-04-20T17:42:31.299Z,101207.58
2018-04-20T17:44:58.757Z,101209.73
2018-04-20T17:47:26.272Z,101209.08
2018-04-20T17:49:53.767Z,101213.33
2018-04-20T17:52:21.341Z,101208.60
2018-04-20T17:54:48.956Z,101208.62
2018-04-20T17:57:16.437Z,101211.47
2018-04-20T17:59:43.887Z,101207.34
2018-04-20T18:02:11.342Z,101208.28
2018-04-20T18:04:38.853Z,101212.38
2018-04-20T18:07:06.395Z,101205.80
2018-04-20T18:09:33.848Z,101205.56
2018-04-20T18:12:01.325Z,101207.34
2018-04-20T18:14:28.795Z,101206.83
2018-04-20T18:16:56.243Z,101207.39
2018-04-20T18:19:23.754Z,101209.47
2018-04-20T18:21:51.268Z,101209.34
2018-04-20T18:24:18.788Z,101211.45
2018-04-20T18:26:46.261Z,101213.39
2018-04-20T18:29:13.804Z,101211.30
2018-04-20T18:31:41.378Z,101212.98
2018-04-20T18:34:08.867Z,101212.84
2018-04-20T18:36:36.415Z,101212.66
2018-04-20T18:39:03.859Z,101217.27
2018-04-20T18:41:31.327Z,101212.65
2018-04-20T18:43:58.826Z,101213.02
2018-04-20T18:46:26.309Z,101217.83
2018-04-20T18:48:53.792Z,101217.51
2018-04-20T18:51:21.315Z,101221.53
2018-04-20T18:53:48.772Z,101221.89
2018-04-20T18:56:16.231Z,101220.72
2018-04-20T18:58:43.787Z,101222.86
2018-04-20T19:01:11.401Z,101219.08
2018-04-20T19:03:38.925Z,101224.80
2018-04-20T19:06:06.418Z,101219.63
2018-04-20T19:08:33.906Z,101229.63
2018-04-20T19:11:01.499Z,101229.82
2018-04-20T19:13:29.029Z,101227.13
2018-04-20T19:15:56.588Z,101228.55
2018-04-20T19:18:24.074Z,101230.69
2018-04-20T19:20:51.573Z,101225.35
2018-04-20T19:23:19.026Z,101233.86
2018-04-20T19:25:46.552Z,101224.09
2018-04-20T19:28:14.109Z,101226.11
2018-04-20T19:30:41.683Z,101219.52
2018-04-20T19:33:09.164Z,101222.63
2018-04-20T19:35:36.669Z,101220.23
2018-04-20T19:38:04.116Z,101220.55
2018-04-20T19:40:31.595Z,101220.98
2018-04-20T19:42:59.078Z,101219.25
2018-04-20T19:45:26.541Z,101210.30
2018-04-20T19:47:54.046Z,101215.04
2018-04-20T19:50:21.551Z,101212.97
2018-04-20T19:52:49.061Z,101212.45
2018-04-20T19:55:16.564Z,101212.17
2018-04-20T19:57:44.057Z,101212.90
2018-04-20T20:00:11.512Z,101217.72
2018-04-20T20:02:39.105Z,101212.59
2018-04-20T20:05:06.559Z,101210.92
2018-04-20T20:07:34.027Z,101209.08
2018-04-20T20:10:01.578Z,101212.22
2018-04-20T20:12:29.132Z,101209.08
2018-04-20T20:14:56.651Z,101207.20
2018-04-20T20:17:24.106Z,101203.95
2018-04-20T20:19:51.630Z,101208.52
2018-04-20T20:22:19.190Z,101201.81
2018-04-20T20:24:46.697Z,101209.77
2018-04-20T20:27:14.225Z,101207.32
2018-04-20T20:29:41.752Z,101206.55
2018-04-20T20:32:09.249Z,101203.54
2018-04-20T20:34:36.759Z,101199.96
2018-04-20T20:37:04.268Z,101194.34
2018-04-20T20:39:31.771Z,101200.03
2018-04-20T20:41:59.340Z,101198.45
2018-04-20T20:47:00.828Z,101192.40
2018-04-20T20:49:28.348Z,101190.61
2018-04-20T20:51:55.833Z,101189.28
2018-04-20T20:54:23.388Z,101190.38
2018-04-20T20:56:50.872Z,101177.02
2018-04-20T20:59:18.364Z,101180.54
2018-04-20T21:01:45.885Z,101181.39
2018-04-20T21:04:13.339Z,101183.05
2018-04-20T21:06:40.814Z,101172.48
2018-04-20T21:09:08.312Z,101181.17
2018-04-20T21:11:35.830Z,101174.46
2018-04-20T21:14:03.336Z,101177.88
2018-04-20T21:16:30.833Z,101177.22
2018-04-20T21:18:58.306Z,101172.26
2018-04-20T21:21:25.787Z,101171.05
2018-04-20T21:23:53.272Z,101174.66
2018-04-20T21:26:20.769Z,101173.45
2018-04-20T21:28:48.277Z,101168.79
2018-04-20T21:31:15.857Z,101165.91
2018-04-20T21:33:43.359Z,101174.03
2018-04-20T21:36:10.895Z,101162.08
2018-04-20T21:38:38.391Z,101164.64
2018-04-20T21:41:05.845Z,101167.84
2018-04-20T21:43:33.303Z,101165.27
2018-04-20T21:46:00.794Z,101162.11
2018-04-20T21:48:28.297Z,101167.30
2018-04-20T21:50:55.804Z,101161.14
2018-04-20T21:53:23.403Z,101166.08
2018-04-20T21:55:50.859Z,101165.27
2018-04-20T21:58:18.421Z,101171.09
2018-04-20T22:00:45.903Z,101168.64
2018-04-20T22:03:13.358Z,101169.89
2018-04-20T22:05:40.941Z,101171.83
2018-04-20T22:08:08.386Z,101177.48
2018-04-20T22:10:35.870Z,101192.24
2018-04-20T22:13:03.374Z,101184.70
2018-04-20T22:15:30.864Z,101183.88
2018-04-20T22:17:58.331Z,101175.52
2018-04-20T22:20:25.889Z,101187.77
2018-04-20T22:22:53.717Z,101190.63
2018-04-20T22:25:21.220Z,101193.81
2018-04-20T22:27:48.775Z,101188.86
2018-04-20T22:30:16.256Z,101186.24
2018-04-20T22:32:43.831Z,101188.69
2018-04-20T22:35:11.392Z,101188.41
2018-04-20T22:37:38.908Z,101188.39
2018-04-20T22:40:06.428Z,101191.13
2018-04-20T22:42:33.913Z,101185.23
2018-04-20T22:45:01.391Z,101189.64
2018-04-20T22:47:28.889Z,101185.95
2018-04-20T22:49:56.411Z,101186.20
2018-04-20T22:52:23.906Z,101179.50
2018-04-20T22:54:51.436Z,101183.64
2018-04-20T22:57:18.930Z,101182.95
2018-04-20T22:59:46.420Z,101174.16
2018-04-20T23:02:13.905Z,101173.48
2018-04-20T23:04:41.404Z,101174.16
2018-04-20T23:07:08.919Z,101171.42
2018-04-20T23:09:36.431Z,101172.53
2018-04-20T23:12:03.919Z,101161.80
2018-04-20T23:14:31.428Z,101169.80
2018-04-20T23:16:58.939Z,101169.80
2018-04-20T23:19:26.403Z,101170.62
2018-04-20T23:21:53.889Z,101171.59
2018-04-20T23:24:21.375Z,101163.47
2018-04-20T23:26:48.930Z,101167.89
2018-04-20T23:29:16.465Z,101164.44
2018-04-20T23:31:43.978Z,101166.36
2018-04-20T23:34:11.464Z,101159.75
2018-04-20T23:36:39.009Z,101159.90
2018-04-20T23:39:06.533Z,101158.13
2018-04-20T23:41:34.016Z,101155.09
2018-04-20T23:44:01.617Z,101154.69
2018-04-20T23:46:29.176Z,101152.09
2018-04-20T23:48:56.705Z,101155.11
2018-04-20T23:51:24.447Z,101145.91
2018-04-20T23:53:51.983Z,101147.14
2018-04-20T23:56:19.499Z,101146.33
2018-04-20T23:58:47.048Z,101144.26
